• Join FlightAware (Why Join?)
  • Login
  • US Flag 
04:52PM EST


 

Airport Tracker/Info


-or-


 

Live Flight TrackerFlight Track Log ✈ FFT573 ✈ 12-May-2013 ✈ KDEN - KSLC

Flight Track Log - Related Links

Times and Time Zones

All times are in EDT time to prevent confusion due to time zone crossing. See the FFT573 flight status page for this flight to view local times or setup timezone preferences in your user account.

Time Position Orientation Groundspeed Altitude Reporting Facility
EDT Latitude Longitude Course Direction KTS MPH feet Rate Location/Type
07:10PM 39.8333 -104.7500 311° West 182 209 6,600  Level Denver TRACON
07:11PM 39.8667 -104.8000 311° West 215 247 7,600 1,320 Climbing Denver TRACON
07:12PM 39.8933 -104.8661 298° West 237 273 8,800 1,620 Climbing Denver Center
07:13PM 39.9317 -104.9583 298° West 282 325 10,500 2,040 Climbing Denver Center
07:14PM 39.9389 -105.0817 274° West 317 365 13,000 2,460 Climbing Denver Center
07:15PM 39.9461 -105.2003 275° West 328 377 15,700 2,280 Climbing Denver Center
07:16PM 39.9547 -105.3247 275° West 345 397 17,800 1,980 Climbing Denver Center
07:17PM 39.9622 -105.4664 274° West 367 422 19,900 1,920 Climbing Denver Center
07:18PM 39.9706 -105.6056 275° West 385 443 21,800 1,920 Climbing Denver Center
07:19PM 39.9742 -105.7633 272° West 408 470 23,900 1,740 Climbing Denver Center
07:20PM 39.9717 -105.8969 269° West 401 461 25,500 1,620 Climbing Denver Center
07:21PM 39.9808 -106.0486 275° West 416 479 27,300 1,560 Climbing Denver Center
07:22PM 39.9889 -106.2025 274° West 425 489 28,800 1,440 Climbing Denver Center
07:23PM 39.9992 -106.3928 274° West 440 506 30,300 1,440 Climbing Denver Center
07:24PM 40.0072 -106.5489 274° West 446 513 31,800 1,500 Climbing Denver Center
07:25PM 40.0164 -106.7278 274° West 444 511 33,400 1,380 Climbing Denver Center
07:26PM 40.0231 -106.8822 273° West 445 512 34,700 1,080 Climbing Denver Center
07:27PM 40.0333 -107.0606 274° West 442 509 35,900 960 Climbing Denver Center
07:28PM 40.0400 -107.2406 273° West 446 513 37,000 960 Climbing Denver Center
07:29PM 40.0472 -107.4186 273° West 441 507 38,000 480 Climbing Denver Center
07:30PM 40.0536 -107.5717 273° West 441 507 38,000  Level Denver Center
07:31PM 40.0611 -107.7500 273° West 443 510 38,000  Level Denver Center
07:32PM 40.0675 -107.9039 273° West 445 512 38,000  Level Denver Center
07:33PM 40.0753 -108.0833 273° West 446 513 38,000  Level Denver Center
07:34PM 40.0814 -108.2367 273° West 443 510 38,000  Level Denver Center
07:36PM 40.0892 -108.4147 273° West 443 510 38,000  Level Denver Center
07:37PM 40.0958 -108.5650 273° West 438 504 38,000  Level Denver Center
07:38PM 40.1025 -108.7414 273° West 438 504 38,000  Level Denver Center
07:39PM 40.1083 -108.8911 273° West 436 502 38,000  Level Denver Center
07:39PM 40.1125 -108.9914 273° West 435 501 38,000  Level Salt Lake Center
07:40PM 40.1175 -109.1433 273° West 438 504 38,000  Level Salt Lake Center
07:41PM 40.1208 -109.2192 273° West 439 505 38,000  Level Denver Center
07:42PM 40.1261 -109.3953 272° West 438 504 38,000  Level Denver Center
07:42PM 40.1289 -109.4708 273° West 437 503 38,000  Level Salt Lake Center
07:43PM 40.1350 -109.6483 273° West 438 504 38,000  Level Salt Lake Center
07:44PM 40.1397 -109.7994 272° West 436 502 38,000 -300 Level Salt Lake Center
07:45PM 40.1447 -109.9764 272° West 437 503 37,500 -780 Descending Salt Lake Center
07:46PM 40.1489 -110.1278 272° West 437 503 36,400 -2,640 Descending Salt Lake Center
07:47PM 40.1492 -110.2892 270° West 461 531 32,100 -3,360 Descending Salt Lake Center
07:48PM 40.1464 -110.4786 269° West 468 539 29,600 -2,220 Descending Salt Lake Center
07:49PM 40.1444 -110.6367 269° West 457 526 27,600 -2,160 Descending Salt Lake Center
07:51PM 40.1428 -110.8156 269° West 443 510 25,200 -2,100 Descending Salt Lake Center
07:52PM 40.1403 -110.9664 269° West 428 493 23,300 -1,980 Descending Salt Lake Center
07:53PM 40.1389 -111.1211 269° West 426 490 21,200 -2,040 Descending Salt Lake Center
07:54PM 40.1367 -111.2719 269° West 418 481 19,200 -1,800 Descending Salt Lake Center
07:55PM 40.1344 -111.4158 269° West 404 465 17,600 -1,800 Descending Salt Lake Center
07:55PM 40.1264 -111.5403 265° West 391 450 16,100 -1,560 Descending Salt Lake Center
07:56PM 40.1339 -111.5550 304° West 390 449 16,000 -240 Descending Salt Lake Center
07:57PM 40.1803 -111.6792 296° West 380 437 15,800 -1,320 Descending Salt Lake Center
07:58PM 40.2742 -111.7803 321° Northwest 365 420 13,300 -1,920 Descending Salt Lake Center
07:59PM 40.3569 -111.8469 328° Northwest 350 403 11,900 -1,080 Descending Salt Lake Center
08:00PM 40.4256 -111.9083 326° Northwest 299 344 11,100 -780 Descending Salt Lake Center
08:01PM 40.4961 -111.9300 347° North 266 306 10,400 -1,080 Descending Salt Lake Center
08:02PM 40.5667 -111.9419 353° North 249 287 9,000 -1,920 Descending Salt Lake Center
08:03PM 40.6283 -111.9494 355° North 229 264 6,700 -1,620 Descending Salt Lake Center
08:04PM 40.6867 -111.9606 352° North 199 229 5,800 -840 Descending Salt Lake Center
08:05PM 40.7306 -111.9656 355° North 164 189 5,100 -780 Descending Salt Lake Center
08:06PM 40.7794 -111.9622 North 146 168 4,200 -840 Descending Salt Lake Center
08:08PM 40.7833 -111.9667 North  Level FlightAware Approximate